Time;durP1;ratioP1;P1;durP2;ratioP2;P2;SDS_P1;SDS_P2;PMS_P1;PMS_P2;Temp;Humidity;BMP_temperature;BMP_pressure;BME280_temperature;BME280_humidity;BME280_pressure;Samples;Min_cycle;Max_cycle;Signal;HPM_P1;HPM_P2
2021/01/29 00:01:52;;;;;;;7.70;4.47;;;10.10;99.90;;;;;;5084630;28;20069;-57
2021/01/29 00:04:18;;;;;;;5.75;4.00;;;10.10;99.90;;;;;;5083394;28;20023;-57
2021/01/29 00:06:43;;;;;;;6.68;3.65;;;10.10;99.90;;;;;;5084254;28;20498;-58
2021/01/29 00:09:09;;;;;;;6.03;3.50;;;10.10;99.90;;;;;;5084587;28;20024;-58
2021/01/29 00:11:34;;;;;;;5.97;3.97;;;10.10;99.90;;;;;;5084583;28;20478;-57
2021/01/29 00:14:00;;;;;;;4.97;3.38;;;10.10;99.90;;;;;;5084090;28;20024;-58
2021/01/29 00:16:25;;;;;;;5.10;3.45;;;10.10;99.90;;;;;;5085187;28;20035;-58
2021/01/29 00:18:51;;;;;;;4.97;2.97;;;10.20;99.90;;;;;;5083926;28;20070;-58
2021/01/29 00:21:17;;;;;;;4.22;2.67;;;10.30;99.90;;;;;;5084783;28;20103;-58
2021/01/29 00:23:43;;;;;;;4.05;2.95;;;10.20;99.90;;;;;;5084579;28;20486;-58
2021/01/29 00:26:09;;;;;;;4.45;2.88;;;10.20;99.90;;;;;;5084233;28;20036;-57
2021/01/29 00:28:34;;;;;;;4.03;2.83;;;10.30;99.90;;;;;;5084248;28;20448;-57
2021/01/29 00:31:00;;;;;;;4.25;2.88;;;10.30;99.90;;;;;;5084060;28;20085;-58
2021/01/29 00:33:27;;;;;;;4.32;2.83;;;10.30;99.90;;;;;;5084842;28;20024;-57
2021/01/29 00:35:53;;;;;;;3.72;2.80;;;10.30;99.90;;;;;;5084500;28;20509;-57
2021/01/29 00:38:19;;;;;;;3.50;2.47;;;10.30;99.90;;;;;;5084296;28;20044;-57
2021/01/29 00:40:45;;;;;;;3.50;2.38;;;10.30;99.90;;;;;;5084487;28;20028;-57
2021/01/29 00:43:11;;;;;;;3.22;2.55;;;10.30;99.90;;;;;;5084453;28;20099;-57
2021/01/29 00:45:39;;;;;;;3.55;2.25;;;10.40;99.90;;;;;;5088044;28;20520;-57
2021/01/29 00:48:06;;;;;;;3.95;2.65;;;10.40;99.90;;;;;;5087907;28;20387;-57
2021/01/29 00:50:32;;;;;;;3.33;2.28;;;10.40;99.90;;;;;;5087564;28;20924;-57
2021/01/29 00:52:59;;;;;;;5.68;2.50;;;10.40;99.90;;;;;;5087202;28;20024;-57
2021/01/29 00:55:26;;;;;;;2.90;2.03;;;10.40;99.90;;;;;;5088167;28;20021;-57
2021/01/29 00:57:51;;;;;;;3.83;2.22;;;10.40;99.90;;;;;;5087713;28;20025;-57
2021/01/29 01:00:18;;;;;;;3.05;2.25;;;10.40;99.90;;;;;;5087793;28;20035;-57
2021/01/29 01:02:45;;;;;;;3.85;2.50;;;10.40;99.90;;;;;;5087126;28;20030;-57
2021/01/29 01:05:13;;;;;;;4.03;2.55;;;10.50;99.90;;;;;;5087487;28;20482;-56
2021/01/29 01:07:39;;;;;;;2.80;2.15;;;10.50;99.90;;;;;;5087686;28;20045;-57
2021/01/29 01:10:07;;;;;;;2.20;1.90;;;10.50;99.90;;;;;;5087427;28;20102;-56
2021/01/29 01:12:32;;;;;;;3.40;2.40;;;10.60;99.90;;;;;;5087529;28;20036;-56
2021/01/29 01:14:58;;;;;;;4.53;2.63;;;10.60;99.90;;;;;;5087054;28;20054;-56
2021/01/29 01:17:24;;;;;;;4.70;2.38;;;10.50;99.90;;;;;;5087809;28;20099;-55
2021/01/29 01:19:50;;;;;;;2.88;2.33;;;10.60;99.90;;;;;;5086949;28;20019;-55
2021/01/29 01:22:16;;;;;;;4.00;2.50;;;10.50;99.90;;;;;;5087874;28;20545;-56
2021/01/29 01:24:41;;;;;;;4.50;2.65;;;10.60;99.90;;;;;;5087015;28;20490;-55
2021/01/29 01:27:09;;;;;;;5.00;3.33;;;10.60;99.90;;;;;;5087336;28;20034;-56
2021/01/29 01:29:35;;;;;;;5.70;3.58;;;10.60;99.90;;;;;;5087245;28;20107;-55
2021/01/29 01:32:01;;;;;;;8.80;3.55;;;10.60;99.90;;;;;;5086784;28;20103;-56
2021/01/29 01:34:28;;;;;;;5.80;3.83;;;10.60;99.90;;;;;;5087400;28;20074;-55
2021/01/29 01:36:53;;;;;;;4.57;3.80;;;10.60;99.90;;;;;;5087476;28;20024;-56
2021/01/29 01:39:19;;;;;;;6.03;4.03;;;10.60;99.90;;;;;;5086999;28;20395;-55
2021/01/29 01:41:45;;;;;;;5.97;4.03;;;10.60;99.90;;;;;;5086855;28;20493;-56
2021/01/29 01:44:32;;;;;;;6.00;4.13;;;10.60;99.90;;;;;;5086773;28;20028;-55
2021/01/29 01:47:05;;;;;;;5.82;3.67;;;10.60;99.90;;;;;;5086676;28;20066;-56
2021/01/29 01:49:31;;;;;;;4.93;4.00;;;10.60;99.90;;;;;;5086762;28;20063;-56
2021/01/29 01:52:06;;;;;;;5.30;4.15;;;10.60;99.90;;;;;;5086447;28;20671;-57
2021/01/29 01:54:32;;;;;;;6.28;4.10;;;10.70;99.90;;;;;;5086819;28;20053;-55
2021/01/29 01:57:00;;;;;;;4.82;3.78;;;10.70;99.90;;;;;;5085985;28;20505;-56
2021/01/29 01:59:33;;;;;;;5.78;3.75;;;10.70;99.90;;;;;;5087057;28;20020;-55
2021/01/29 02:02:00;;;;;;;5.27;3.30;;;10.80;99.90;;;;;;5086444;28;20103;-56
2021/01/29 02:04:32;;;;;;;5.75;3.15;;;10.70;99.90;;;;;;5086788;28;20024;-55
2021/01/29 02:07:34;;;;;;;4.00;3.22;;;10.80;99.90;;;;;;5085756;28;20097;-56
2021/01/29 02:10:01;;;;;;;4.13;2.60;;;10.80;99.90;;;;;;5086294;28;20028;-56
2021/01/29 02:12:27;;;;;;;3.40;2.60;;;10.80;99.90;;;;;;5086007;28;20064;-56
2021/01/29 02:14:52;;;;;;;3.72;2.78;;;10.80;99.90;;;;;;5086384;28;20066;-56
2021/01/29 02:17:32;;;;;;;4.03;2.72;;;10.80;99.90;;;;;;5085958;28;20375;-55
2021/01/29 02:20:01;;;;;;;3.72;2.60;;;10.80;99.90;;;;;;5085954;28;20105;-56
2021/01/29 02:22:27;;;;;;;3.15;2.05;;;10.90;99.90;;;;;;5086409;28;20020;-56
2021/01/29 02:25:07;;;;;;;3.80;2.47;;;10.90;99.90;;;;;;5086439;28;20080;-56
2021/01/29 02:27:42;;;;;;;3.28;2.53;;;10.90;99.90;;;;;;5085753;28;20036;-56
2021/01/29 02:30:30;;;;;;;3.25;2.47;;;10.90;99.90;;;;;;5086106;28;20099;-56
2021/01/29 02:33:13;;;;;;;4.90;2.63;;;10.90;99.90;;;;;;5086065;28;20024;-56
2021/01/29 02:35:54;;;;;;;3.47;2.20;;;10.80;99.90;;;;;;5085280;28;20063;-56
2021/01/29 02:38:45;;;;;;;2.70;2.20;;;10.80;99.90;;;;;;5085911;28;20024;-56
2021/01/29 02:41:17;;;;;;;3.75;2.80;;;10.80;99.90;;;;;;5085936;28;20052;-56
2021/01/29 02:44:14;;;;;;;3.90;2.25;;;10.80;99.90;;;;;;5085828;28;20233;-55
2021/01/29 02:46:49;;;;;;;3.55;2.60;;;10.90;99.90;;;;;;5085305;28;20031;-55
2021/01/29 02:49:22;;;;;;;;;;;10.90;99.90;;;;;;5086176;28;20024;-55
2021/01/29 02:52:18;;;;;;;3.58;2.83;;;11.00;99.90;;;;;;5084976;28;20012;-55
2021/01/29 02:54:57;;;;;;;6.68;2.80;;;10.90;99.90;;;;;;5085195;28;20024;-55
2021/01/29 02:57:27;;;;;;;3.33;2.40;;;10.90;99.90;;;;;;5085833;28;20032;-55
2021/01/29 03:00:08;;;;;;;2.15;1.92;;;10.90;99.90;;;;;;5085890;28;20103;-55
2021/01/29 03:02:58;;;;;;;2.38;2.00;;;10.90;99.90;;;;;;5085180;28;20071;-55
2021/01/29 03:05:40;;;;;;;2.45;1.73;;;10.80;99.90;;;;;;5085398;28;20055;-55
2021/01/29 03:08:09;;;;;;;1.73;1.58;;;10.80;99.90;;;;;;5084317;28;20448;-55
2021/01/29 03:10:55;;;;;;;2.38;1.80;;;10.80;99.90;;;;;;5085120;28;20089;-55
2021/01/29 03:13:31;;;;;;;2.42;1.75;;;10.90;99.90;;;;;;5085580;28;20482;-54
2021/01/29 03:16:10;;;;;;;1.67;1.48;;;10.90;99.90;;;;;;5085220;28;20027;-55
2021/01/29 03:18:46;;;;;;;1.60;1.50;;;10.90;99.90;;;;;;5084810;28;20036;-56
2021/01/29 03:21:16;;;;;;;2.55;1.95;;;10.90;99.90;;;;;;5084058;28;20035;-55
2021/01/29 03:23:51;;;;;;;4.70;2.20;;;10.90;99.90;;;;;;5092390;28;20019;-54
2021/01/29 03:26:24;;;;;;;2.00;1.70;;;11.00;99.90;;;;;;5105270;28;20019;-54
2021/01/29 03:28:55;;;;;;;2.33;1.70;;;11.00;99.90;;;;;;5104032;28;20039;-55
2021/01/29 03:31:23;;;;;;;2.53;1.60;;;11.00;99.90;;;;;;5105175;28;20397;-55
2021/01/29 03:34:16;;;;;;;2.80;1.50;;;11.10;99.90;;;;;;5104716;28;20629;-54
2021/01/29 03:36:49;;;;;;;1.80;1.58;;;11.10;99.90;;;;;;5105130;28;20106;-55
2021/01/29 03:39:26;;;;;;;2.22;1.40;;;11.10;99.90;;;;;;5104394;28;20011;-54
2021/01/29 03:42:23;;;;;;;2.25;1.48;;;11.00;99.90;;;;;;5104653;28;20028;-54
2021/01/29 03:45:16;;;;;;;1.70;1.45;;;11.10;99.90;;;;;;5088621;28;20028;-53
2021/01/29 03:47:59;;;;;;;2.10;1.20;;;11.10;99.90;;;;;;5104501;28;20031;-55
2021/01/29 03:50:51;;;;;;;2.03;1.55;;;11.10;99.90;;;;;;5105072;28;20028;-55
2021/01/29 03:53:47;;;;;;;1.95;1.65;;;11.20;99.90;;;;;;5104897;28;20028;-54
2021/01/29 03:56:41;;;;;;;2.42;1.38;;;11.20;99.90;;;;;;5104791;28;20117;-55
2021/01/29 03:59:14;;;;;;;1.95;1.65;;;11.20;99.90;;;;;;5080390;28;20527;-55
2021/01/29 04:02:03;;;;;;;2.08;1.60;;;11.20;99.90;;;;;;5103925;28;20050;-53
2021/01/29 04:04:34;;;;;;;2.78;1.98;;;11.20;99.90;;;;;;5097843;28;20075;-52
2021/01/29 04:07:24;;;;;;;1.98;1.50;;;11.20;99.90;;;;;;5105244;28;20031;-55
2021/01/29 04:10:07;;;;;;;2.55;1.50;;;11.20;99.90;;;;;;5104851;28;20020;-54
2021/01/29 04:12:43;;;;;;;2.90;1.50;;;11.20;99.90;;;;;;5105637;28;20036;-54
2021/01/29 04:15:23;;;;;;;1.77;1.42;;;11.20;99.90;;;;;;5104815;28;20062;-54
2021/01/29 04:18:11;;;;;;;1.60;1.42;;;11.20;99.90;;;;;;5104055;28;20058;-54
2021/01/29 04:20:46;;;;;;;1.77;1.50;;;11.20;99.90;;;;;;5108813;28;20034;-54
2021/01/29 04:23:31;;;;;;;1.40;1.05;;;11.20;99.90;;;;;;5108474;28;20486;-55
2021/01/29 04:26:28;;;;;;;1.33;1.23;;;11.10;99.90;;;;;;5108694;28;20521;-54
2021/01/29 04:29:00;;;;;;;2.80;1.30;;;11.10;99.90;;;;;;5105960;28;20036;-53
2021/01/29 04:31:29;;;;;;;1.33;1.10;;;11.10;99.90;;;;;;5108997;28;20371;-54
2021/01/29 04:34:02;;;;;;;1.52;1.20;;;11.20;99.90;;;;;;5108145;28;20027;-54
2021/01/29 04:36:32;;;;;;;1.52;1.10;;;11.20;99.90;;;;;;5108979;28;20055;-54
2021/01/29 04:39:11;;;;;;;2.03;1.50;;;11.20;99.90;;;;;;5108423;28;20425;-53
2021/01/29 04:42:15;;;;;;;1.40;1.10;;;11.20;99.90;;;;;;5107920;28;20485;-54
2021/01/29 04:44:49;;;;;;;1.83;1.38;;;11.20;99.90;;;;;;5091888;28;20043;-54
2021/01/29 04:47:35;;;;;;;1.65;1.23;;;11.20;99.90;;;;;;5108150;28;20027;-54
2021/01/29 04:50:12;;;;;;;1.60;1.25;;;11.30;99.90;;;;;;5108805;28;20086;-53
2021/01/29 04:53:05;;;;;;;1.63;1.35;;;11.30;99.90;;;;;;5107833;27;20066;-55
2021/01/29 04:55:39;;;;;;;2.17;1.38;;;11.30;99.90;;;;;;5108829;28;20026;-54
2021/01/29 04:58:13;;;;;;;3.20;1.38;;;11.20;99.90;;;;;;5108180;28;20028;-53
2021/01/29 05:00:54;;;;;;;1.83;1.10;;;11.20;99.90;;;;;;5107823;28;20038;-55
2021/01/29 05:03:37;;;;;;;1.55;1.30;;;11.20;99.90;;;;;;5097197;28;20025;-54
2021/01/29 05:06:15;;;;;;;1.65;1.10;;;11.30;99.90;;;;;;5088897;28;20032;-55
2021/01/29 05:09:16;;;;;;;1.30;1.17;;;11.30;99.90;;;;;;5099972;28;20490;-54
2021/01/29 05:11:53;;;;;;;1.40;1.30;;;11.20;99.90;;;;;;5088699;28;20055;-55
2021/01/29 05:14:56;;;;;;;2.03;1.45;;;11.20;99.90;;;;;;5101226;28;20024;-53
2021/01/29 05:17:40;;;;;;;2.00;1.30;;;11.30;99.90;;;;;;5108974;28;20024;-55
2021/01/29 05:20:37;;;;;;;1.75;1.38;;;11.30;99.90;;;;;;5109178;28;20019;-54
2021/01/29 05:23:25;;;;;;;1.35;1.10;;;11.30;99.90;;;;;;5088384;28;20039;-55
2021/01/29 05:26:12;;;;;;;2.63;1.08;;;11.30;99.90;;;;;;5088469;28;20041;-54
2021/01/29 05:28:41;;;;;;;2.15;1.08;;;11.30;99.90;;;;;;5088062;28;20059;-54
2021/01/29 05:31:25;;;;;;;2.20;1.33;;;11.30;99.90;;;;;;5087142;28;20103;-54
2021/01/29 05:34:06;;;;;;;2.03;1.20;;;11.20;99.90;;;;;;5088139;28;20124;-54
2021/01/29 05:37:15;;;;;;;1.55;1.30;;;11.10;99.90;;;;;;5087546;28;20024;-54
2021/01/29 05:40:06;;;;;;;1.20;1.10;;;11.00;99.90;;;;;;5086392;28;20028;-54
2021/01/29 05:42:59;;;;;;;2.35;1.10;;;11.00;99.90;;;;;;5094921;28;20024;-54
2021/01/29 05:45:40;;;;;;;1.85;1.15;;;11.00;99.90;;;;;;5088416;28;20032;-54
2021/01/29 05:48:31;;;;;;;2.42;1.30;;;11.00;99.90;;;;;;5088072;28;20036;-54
2021/01/29 05:51:12;;;;;;;1.85;1.35;;;11.00;99.90;;;;;;5087981;28;20020;-55
2021/01/29 05:54:06;;;;;;;2.08;1.30;;;11.00;99.90;;;;;;5087805;28;20027;-55
2021/01/29 05:56:54;;;;;;;2.85;1.48;;;11.00;99.90;;;;;;5095156;28;20020;-55
2021/01/29 05:59:37;;;;;;;1.58;1.30;;;11.00;99.90;;;;;;5107574;28;20518;-55
2021/01/29 06:02:08;;;;;;;1.70;1.30;;;10.90;99.90;;;;;;5104573;28;20027;-54
2021/01/29 06:04:55;;;;;;;2.65;1.60;;;10.80;99.90;;;;;;5095575;28;20099;-54
2021/01/29 06:07:40;;;;;;;2.50;1.48;;;10.70;99.90;;;;;;5089240;28;20077;-54
2021/01/29 06:10:23;;;;;;;1.67;1.27;;;10.70;99.90;;;;;;5085482;28;20032;-55
2021/01/29 06:12:53;;;;;;;3.20;1.70;;;10.70;99.90;;;;;;5086408;28;20036;-53
2021/01/29 06:15:53;;;;;;;1.45;1.30;;;10.80;99.90;;;;;;5086268;28;20059;-54
2021/01/29 06:18:48;;;;;;;1.30;0.90;;;10.80;99.90;;;;;;5086145;28;20042;-54
2021/01/29 06:21:29;;;;;;;1.83;1.10;;;10.80;99.90;;;;;;5086550;28;20476;-54
2021/01/29 06:24:24;;;;;;;1.60;1.17;;;10.80;99.90;;;;;;5085770;28;20024;-53
2021/01/29 06:26:55;;;;;;;1.60;1.30;;;10.80;99.90;;;;;;5085879;28;20032;-54
2021/01/29 06:29:43;;;;;;;2.30;1.45;;;10.80;99.90;;;;;;5086058;28;20024;-52
2021/01/29 06:32:27;;;;;;;1.52;1.20;;;10.80;99.90;;;;;;5085607;28;20035;-54
2021/01/29 06:35:20;;;;;;;2.58;1.45;;;11.00;99.90;;;;;;5085543;28;20043;-53
2021/01/29 06:38:11;;;;;;;2.00;1.45;;;11.00;99.90;;;;;;5084722;28;20016;-54
2021/01/29 06:40:53;;;;;;;2.38;1.30;;;10.90;99.90;;;;;;5085781;28;20406;-53
2021/01/29 06:43:41;;;;;;;1.83;1.33;;;10.90;99.90;;;;;;5085505;28;20522;-52
2021/01/29 06:46:26;;;;;;;1.95;1.33;;;11.10;99.90;;;;;;5084157;28;20024;-53
2021/01/29 06:49:24;;;;;;;1.42;1.33;;;11.00;99.90;;;;;;5085901;28;20024;-54
2021/01/29 06:51:56;;;;;;;1.73;1.33;;;11.00;99.90;;;;;;5084996;28;20505;-54
2021/01/29 06:54:41;;;;;;;2.05;1.73;;;11.00;99.90;;;;;;5085695;28;20051;-55
2021/01/29 06:57:16;;;;;;;1.92;1.52;;;10.90;99.90;;;;;;5085018;28;20555;-53
2021/01/29 07:00:01;;;;;;;2.25;1.20;;;10.80;99.90;;;;;;5085810;28;20024;-53
2021/01/29 07:02:45;;;;;;;4.15;1.58;;;10.80;99.90;;;;;;5084934;28;20036;-54
2021/01/29 07:05:28;;;;;;;2.20;1.48;;;10.80;99.90;;;;;;5087964;28;20154;-53
2021/01/29 07:08:07;;;;;;;2.20;1.55;;;10.80;99.90;;;;;;5086550;28;20109;-53
2021/01/29 07:10:51;;;;;;;1.23;1.00;;;10.90;99.90;;;;;;5086751;28;20035;-53
2021/01/29 07:13:57;;;;;;;1.80;1.38;;;10.80;99.90;;;;;;5093028;28;20500;-53
2021/01/29 07:16:34;;;;;;;1.75;1.42;;;10.70;99.90;;;;;;5104473;28;20102;-53
2021/01/29 07:19:18;;;;;;;3.00;1.50;;;10.70;99.90;;;;;;5093487;28;20484;-52
2021/01/29 07:22:10;;;;;;;1.95;1.23;;;10.70;99.90;;;;;;5107499;28;20049;-54
2021/01/29 07:24:58;;;;;;;1.38;1.10;;;10.70;99.90;;;;;;5091495;28;20032;-53
2021/01/29 07:27:44;;;;;;;1.92;1.30;;;10.60;99.90;;;;;;5086519;28;20102;-53
2021/01/29 07:30:35;;;;;;;2.33;1.42;;;10.60;99.90;;;;;;5084658;28;20498;-52
2021/01/29 07:33:21;;;;;;;2.67;1.60;;;10.50;99.90;;;;;;5085368;28;20433;-53
2021/01/29 07:36:17;;;;;;;3.28;1.60;;;10.60;99.90;;;;;;5084695;28;20066;-51
2021/01/29 07:39:21;;;;;;;4.60;3.33;;;10.60;99.90;;;;;;5084919;28;20099;-53
2021/01/29 07:42:08;;;;;;;4.43;2.97;;;10.50;99.90;;;;;;5084810;28;20012;-53
2021/01/29 07:45:15;;;;;;;3.35;2.40;;;10.50;99.90;;;;;;5084541;28;20112;-51
2021/01/29 07:48:03;;;;;;;4.38;2.55;;;10.50;99.90;;;;;;5070050;28;20118;-53
2021/01/29 07:50:41;;;;;;;4.35;2.90;;;10.50;99.90;;;;;;5085359;28;20024;-51
2021/01/29 07:53:36;;;;;;;4.45;2.88;;;10.50;99.90;;;;;;5084115;28;20035;-50
2021/01/29 07:56:14;;;;;;;3.75;2.47;;;10.60;99.90;;;;;;5087315;28;20030;-52
2021/01/29 07:59:20;;;;;;;2.30;1.70;;;10.70;99.90;;;;;;5089001;28;20028;-50
2021/01/29 08:02:15;;;;;;;2.60;1.48;;;10.90;99.90;;;;;;5068962;28;20162;-51
2021/01/29 08:04:56;;;;;;;5.25;1.23;;;11.10;99.90;;;;;;5086149;28;20169;-52
2021/01/29 08:07:45;;;;;;;1.55;1.23;;;11.10;99.90;;;;;;5095171;28;20058;-49
2021/01/29 08:10:27;;;;;;;1.30;1.00;;;11.20;99.90;;;;;;5088502;28;20038;-53
2021/01/29 08:13:10;;;;;;;1.67;1.17;;;11.10;99.90;;;;;;5088308;28;20398;-54
2021/01/29 08:15:39;;;;;;;1.33;1.02;;;11.20;99.90;;;;;;5088248;28;20448;-54
2021/01/29 08:18:06;;;;;;;1.48;0.80;;;11.20;99.90;;;;;;5088243;28;20024;-54
2021/01/29 08:20:56;;;;;;;1.67;0.90;;;11.30;99.90;;;;;;5089037;28;20427;-54
2021/01/29 08:23:38;;;;;;;1.05;0.70;;;11.40;99.90;;;;;;5087889;28;20103;-53
2021/01/29 08:26:35;;;;;;;0.95;0.80;;;11.50;99.90;;;;;;5087916;28;20406;-53
2021/01/29 08:29:32;;;;;;;2.90;0.80;;;11.50;99.90;;;;;;5087964;28;20064;-51
2021/01/29 08:32:07;;;;;;;0.98;0.68;;;11.50;99.90;;;;;;5068486;28;20036;-53
2021/01/29 08:34:56;;;;;;;1.05;0.77;;;11.60;99.90;;;;;;5087647;28;20020;-53
2021/01/29 08:37:35;;;;;;;1.27;0.70;;;11.50;99.90;;;;;;5087822;28;20024;-53
2021/01/29 08:40:15;;;;;;;1.77;0.80;;;11.50;99.90;;;;;;5087816;28;20027;-49
2021/01/29 08:42:59;;;;;;;1.17;0.80;;;11.60;99.90;;;;;;5087965;28;20032;-50
2021/01/29 08:45:43;;;;;;;0.98;0.80;;;11.60;99.90;;;;;;5093706;28;20023;-52
2021/01/29 08:48:42;;;;;;;1.10;0.80;;;11.60;99.90;;;;;;5103357;28;20032;-52
2021/01/29 08:51:15;;;;;;;2.03;0.73;;;11.70;99.90;;;;;;5087619;28;20090;-52
2021/01/29 08:54:21;;;;;;;1.77;0.80;;;11.70;99.90;;;;;;5087544;28;20055;-54
2021/01/29 08:56:50;;;;;;;3.20;0.85;;;11.70;99.90;;;;;;5081987;28;20035;-53
2021/01/29 08:59:20;;;;;;;1.50;0.60;;;11.80;99.90;;;;;;5092925;28;20011;-53
2021/01/29 09:01:56;;;;;;;1.48;0.68;;;11.80;99.90;;;;;;5108179;28;20039;-51
2021/01/29 09:04:42;;;;;;;1.75;0.70;;;11.80;99.90;;;;;;5107946;28;20023;-50
2021/01/29 09:07:18;;;;;;;1.50;0.60;;;11.80;99.90;;;;;;5105404;28;20065;-51
2021/01/29 09:09:44;;;;;;;1.58;0.90;;;11.90;99.90;;;;;;5107917;28;20133;-51
2021/01/29 09:12:25;;;;;;;1.50;0.90;;;11.90;99.90;;;;;;5102901;28;20063;-53
2021/01/29 09:14:58;;;;;;;1.63;0.70;;;11.90;99.90;;;;;;5087038;28;20028;-51
2021/01/29 09:17:34;;;;;;;1.00;0.52;;;11.90;99.90;;;;;;5085650;28;20056;-50
2021/01/29 09:20:05;;;;;;;1.52;0.60;;;12.00;99.90;;;;;;5096712;28;20097;-49
2021/01/29 09:22:33;;;;;;;0.52;0.52;;;12.00;99.90;;;;;;5087430;28;20028;-52
2021/01/29 09:25:10;;;;;;;1.15;0.60;;;12.00;99.90;;;;;;5086966;28;20028;-50
2021/01/29 09:28:06;;;;;;;1.77;0.73;;;12.00;99.90;;;;;;5087038;28;20028;-52
2021/01/29 09:30:48;;;;;;;1.55;0.68;;;12.00;99.90;;;;;;5087158;28;20024;-52
2021/01/29 09:33:41;;;;;;;0.82;0.55;;;12.10;99.90;;;;;;5094017;28;20082;-51
2021/01/29 09:36:09;;;;;;;1.35;0.80;;;12.10;99.90;;;;;;5106605;28;20016;-50
2021/01/29 09:38:43;;;;;;;1.50;0.80;;;12.10;99.90;;;;;;5092274;28;20390;-52
2021/01/29 09:41:27;;;;;;;2.50;1.60;;;12.20;99.90;;;;;;5106272;27;20073;-53
2021/01/29 09:43:55;;;;;;;2.20;1.20;;;12.30;99.90;;;;;;5105203;28;20054;-51
2021/01/29 09:46:28;;;;;;;3.00;1.20;;;12.20;99.90;;;;;;5089890;28;20032;-51
2021/01/29 09:49:02;;;;;;;0.90;0.70;;;12.20;99.90;;;;;;5084941;28;20076;-51
2021/01/29 09:51:32;;;;;;;1.90;1.00;;;12.20;99.90;;;;;;5085913;28;20031;-52
2021/01/29 09:54:12;;;;;;;1.42;0.90;;;12.20;99.90;;;;;;5083976;28;20024;-51
2021/01/29 09:56:42;;;;;;;1.33;0.80;;;12.30;99.90;;;;;;5084540;28;20168;-51
2021/01/29 09:59:39;;;;;;;1.30;1.02;;;12.30;99.90;;;;;;5088265;28;20072;-53
2021/01/29 10:02:29;;;;;;;1.85;1.00;;;12.40;99.90;;;;;;5104867;28;20386;-51
2021/01/29 10:05:00;;;;;;;2.97;1.23;;;12.40;99.90;;;;;;5104661;28;20044;-52
2021/01/29 10:07:28;;;;;;;1.67;0.73;;;12.40;99.90;;;;;;5105454;28;20026;-53
2021/01/29 10:10:19;;;;;;;2.60;0.70;;;12.50;99.90;;;;;;5104490;28;20452;-51
2021/01/29 10:12:59;;;;;;;1.63;0.65;;;12.50;99.90;;;;;;5091096;28;20048;-51
2021/01/29 10:15:30;;;;;;;2.03;0.47;;;12.40;99.90;;;;;;5103146;28;20024;-55
2021/01/29 10:18:10;;;;;;;2.83;0.85;;;12.40;99.90;;;;;;5102677;28;20036;-55
2021/01/29 10:20:37;;;;;;;3.28;1.08;;;12.40;99.90;;;;;;5106714;28;20019;-55
2021/01/29 10:23:15;;;;;;;2.28;0.90;;;12.40;99.90;;;;;;5106799;28;20034;-55
2021/01/29 10:26:02;;;;;;;2.45;1.10;;;12.50;99.90;;;;;;5089182;28;20024;-56
2021/01/29 10:29:00;;;;;;;3.30;1.50;;;12.60;99.90;;;;;;5101109;28;20432;-54
2021/01/29 10:31:27;;;;;;;3.58;1.80;;;12.60;99.90;;;;;;5088173;28;20028;-53
2021/01/29 10:34:30;;;;;;;5.50;2.10;;;12.50;99.90;;;;;;5092591;28;20019;-55
2021/01/29 10:37:07;;;;;;;4.80;1.60;;;12.50;99.90;;;;;;5093619;28;20247;-54
2021/01/29 10:39:49;;;;;;;5.35;1.17;;;12.40;99.90;;;;;;5104830;28;20023;-56
2021/01/29 10:42:17;;;;;;;1.52;0.70;;;12.50;99.90;;;;;;5105188;27;20031;-55
2021/01/29 10:44:45;;;;;;;1.02;0.70;;;12.50;99.90;;;;;;5105689;27;20034;-54
2021/01/29 10:47:36;;;;;;;2.35;0.60;;;12.50;99.90;;;;;;5102234;28;20385;-55
2021/01/29 10:50:16;;;;;;;1.50;0.60;;;12.50;99.90;;;;;;5103206;28;20073;-56
2021/01/29 10:52:48;;;;;;;2.00;0.82;;;12.50;99.90;;;;;;5104874;28;20562;-56
2021/01/29 10:55:22;;;;;;;2.42;1.00;;;12.50;99.90;;;;;;5104887;28;20106;-56
2021/01/29 10:57:57;;;;;;;3.70;1.10;;;12.50;99.90;;;;;;5103853;28;20110;-55
2021/01/29 11:00:28;;;;;;;;;;;12.60;99.90;;;;;;5105675;28;20028;-55
2021/01/29 11:03:03;;;;;;;5.40;1.77;;;12.50;99.90;;;;;;5101387;28;19942;-54
2021/01/29 11:05:33;;;;;;;5.15;1.52;;;12.50;99.90;;;;;;5104739;27;20574;-53
2021/01/29 11:08:20;;;;;;;5.65;1.83;;;12.60;99.90;;;;;;5105208;28;20056;-51
2021/01/29 11:10:58;;;;;;;4.53;1.63;;;12.60;99.90;;;;;;5100798;28;20027;-53
2021/01/29 11:13:45;;;;;;;7.10;2.38;;;12.70;99.90;;;;;;5084826;28;20390;-49
2021/01/29 11:16:13;;;;;;;7.97;3.05;;;12.90;99.90;;;;;;5097084;28;20030;-53
2021/01/29 11:18:39;;;;;;;6.93;2.20;;;13.00;99.90;;;;;;5084354;28;20028;-53
2021/01/29 11:21:44;;;;;;;4.78;1.92;;;13.10;99.90;;;;;;5084359;28;20028;-53
2021/01/29 11:24:25;;;;;;;6.88;1.80;;;13.20;99.90;;;;;;5084167;28;20024;-50
2021/01/29 11:27:14;;;;;;;7.50;1.80;;;13.10;99.90;;;;;;5087412;28;20032;-54
2021/01/29 11:29:52;;;;;;;5.28;1.65;;;13.00;99.90;;;;;;5089405;28;20140;-55
2021/01/29 11:32:24;;;;;;;6.45;1.40;;;13.00;99.90;;;;;;5094178;28;20505;-53
2021/01/29 11:35:01;;;;;;;5.53;1.50;;;13.20;99.90;;;;;;5104544;28;20031;-53
2021/01/29 11:37:42;;;;;;;3.70;1.20;;;13.30;99.90;;;;;;5105154;28;20429;-54
2021/01/29 11:40:10;;;;;;;3.55;0.88;;;13.20;99.90;;;;;;5090648;28;20024;-54
2021/01/29 11:43:08;;;;;;;10.18;2.95;;;13.10;99.90;;;;;;5104602;28;20020;-55
2021/01/29 11:45:46;;;;;;;7.70;2.95;;;13.10;99.90;;;;;;5088133;28;20066;-53
2021/01/29 11:48:33;;;;;;;5.88;2.00;;;13.30;99.90;;;;;;5084134;28;20043;-54
2021/01/29 11:51:08;;;;;;;4.45;1.67;;;13.60;99.90;;;;;;5084488;28;20039;-54
2021/01/29 11:53:50;;;;;;;5.28;1.45;;;13.60;99.90;;;;;;5084101;28;20097;-54
2021/01/29 11:56:32;;;;;;;5.90;2.08;;;13.50;99.90;;;;;;5104125;28;20108;-54
2021/01/29 11:59:40;;;;;;;4.32;1.33;;;13.30;99.90;;;;;;5104798;28;20012;-53
2021/01/29 12:02:44;;;;;;;4.75;1.30;;;13.30;99.90;;;;;;5059876;28;20040;-53
2021/01/29 12:05:27;;;;;;;3.90;0.93;;;13.20;99.90;;;;;;5039154;28;20157;-53
2021/01/29 12:08:08;;;;;;;6.15;1.98;;;13.20;99.90;;;;;;5080202;28;20036;-55
2021/01/29 12:10:34;;;;;;;12.82;4.22;;;13.20;99.90;;;;;;5093046;28;20504;-54
2021/01/29 12:13:18;;;;;;;9.27;3.72;;;13.20;99.90;;;;;;5102722;28;20066;-52
2021/01/29 12:15:52;;;;;;;11.02;5.13;;;13.30;99.90;;;;;;5084478;28;20107;-54
2021/01/29 12:18:20;;;;;;;7.20;3.15;;;13.30;99.90;;;;;;5083594;28;20081;-54
2021/01/29 12:20:47;;;;;;;8.55;4.53;;;13.30;99.90;;;;;;5084138;28;20103;-55
2021/01/29 12:23:12;;;;;;;7.85;4.20;;;13.20;99.90;;;;;;5095252;28;20023;-52
2021/01/29 12:25:49;;;;;;;14.85;5.55;;;13.20;99.90;;;;;;5088147;28;20024;-52
2021/01/29 12:28:40;;;;;;;10.85;4.40;;;13.10;99.90;;;;;;5103981;28;20035;-53
2021/01/29 12:31:27;;;;;;;11.38;5.40;;;13.10;99.90;;;;;;5092588;28;20025;-54
2021/01/29 12:34:03;;;;;;;9.57;3.70;;;13.00;99.90;;;;;;5092172;28;20031;-54
2021/01/29 12:36:31;;;;;;;7.45;3.50;;;13.00;99.90;;;;;;5088191;28;20523;-49
2021/01/29 12:39:24;;;;;;;8.13;3.45;;;13.10;99.90;;;;;;5101633;28;20020;-53
2021/01/29 12:42:12;;;;;;;9.27;2.55;;;13.00;99.90;;;;;;5094175;28;20081;-51
2021/01/29 12:45:01;;;;;;;3.75;1.58;;;13.00;99.90;;;;;;5087799;28;20028;-54
2021/01/29 12:47:48;;;;;;;6.50;1.75;;;13.00;99.90;;;;;;5103101;28;20386;-51
2021/01/29 12:50:32;;;;;;;6.93;1.77;;;13.00;99.90;;;;;;5087277;28;20078;-53
2021/01/29 12:53:21;;;;;;;6.60;1.63;;;12.90;99.90;;;;;;5088250;28;20074;-53
2021/01/29 12:56:17;;;;;;;8.50;2.58;;;12.90;99.90;;;;;;5090386;28;20592;-50
2021/01/29 12:58:46;;;;;;;8.95;3.47;;;12.90;99.90;;;;;;5087488;28;20021;-50
2021/01/29 13:01:34;;;;;;;14.20;6.03;;;12.90;99.90;;;;;;5094239;28;20023;-52
2021/01/29 13:04:24;;;;;;;12.25;4.30;;;12.90;99.90;;;;;;5095456;28;20028;-49
2021/01/29 13:06:55;;;;;;;8.25;3.45;;;12.90;99.90;;;;;;5087051;28;20032;-53
2021/01/29 13:09:46;;;;;;;8.32;3.40;;;12.90;99.90;;;;;;5087415;28;20051;-53
2021/01/29 13:12:39;;;;;;;4.93;2.13;;;13.00;99.90;;;;;;5094945;28;20114;-53
2021/01/29 13:15:23;;;;;;;7.22;2.65;;;13.10;99.90;;;;;;5089017;28;20027;-54
2021/01/29 13:18:01;;;;;;;5.65;2.90;;;13.40;99.90;;;;;;5108376;28;20031;-50
2021/01/29 13:20:33;;;;;;;8.38;2.85;;;13.50;99.90;;;;;;5100355;28;20024;-50
2021/01/29 13:23:22;;;;;;;4.38;1.63;;;13.50;99.90;;;;;;5085957;28;20056;-52
2021/01/29 13:26:10;;;;;;;8.25;1.73;;;13.30;99.90;;;;;;5087050;28;20414;-52
2021/01/29 13:28:39;;;;;;;6.10;1.77;;;13.20;99.90;;;;;;5086852;28;20404;-51
2021/01/29 13:31:20;;;;;;;5.30;2.10;;;13.10;99.90;;;;;;5106513;28;20028;-51
2021/01/29 13:33:53;;;;;;;5.68;1.80;;;13.10;99.90;;;;;;5097195;28;20119;-53
2021/01/29 13:36:30;;;;;;;11.20;3.42;;;13.00;99.90;;;;;;5086610;28;20058;-52
2021/01/29 13:39:32;;;;;;;6.75;2.60;;;12.90;99.90;;;;;;5086417;28;20028;-53
2021/01/29 13:42:25;;;;;;;9.70;2.45;;;12.90;99.90;;;;;;5063055;28;20033;-50
2021/01/29 13:44:56;;;;;;;5.90;2.22;;;12.80;99.90;;;;;;5098448;28;20088;-52
2021/01/29 13:47:45;;;;;;;7.82;2.55;;;12.80;99.90;;;;;;5101546;28;20039;-54
2021/01/29 13:50:26;;;;;;;3.85;1.90;;;12.80;99.90;;;;;;5101419;28;20110;-53
2021/01/29 13:53:04;;;;;;;4.80;1.85;;;12.80;99.90;;;;;;5099187;28;20398;-52